| time (UTC) | temp F | wind direction | speed MPH | gust MPH | rain 1hr in | rain 24hr in | rain mn in | humidity % | barometer mb |
| 20260510181414 | 89 | 307 | 5.0 | 6.0 | 0.00 | 0.00 | 0.00 | 64 | 1015.9 |
| 20260510175913 | 90 | 292 | 5.0 | 9.0 | 0.00 | 0.00 | 0.00 | 64 | 1016.0 |
| 20260510174412 | 90 | 314 | 6.0 | 8.0 | 0.00 | 0.00 | 0.00 | 65 | 1016.1 |
| 20260510172911 | 90 | 257 | 5.0 | 9.0 | 0.00 | 0.00 | 0.00 | 63 | 1016.1 |
| 20260510171410 | 92 | 338 | 1.0 | 6.0 | 0.00 | 0.00 | 0.00 | 63 | 1016.2 |
| 20260510165909 | 91 | 295 | 6.0 | 9.0 | 0.00 | 0.00 | 0.00 | 64 | 1016.3 |
| 20260510162521 | 90 | 273 | 3.0 | 7.0 | 0.00 | 0.03 | 0.00 | 62 | 1016.1 |
| 20260510161020 | 91 | 312 | 4.0 | 8.0 | 0.00 | 0.03 | 0.00 | 62 | 1016.3 |
| 20260510155519 | 91 | 280 | 3.0 | 6.0 | 0.00 | 0.03 | 0.00 | 64 | 1016.2 |
| 20260510154018 | 88 | 288 | 3.0 | 5.0 | 0.00 | 0.03 | 0.00 | 63 | 1016.3 |
| 20260510152517 | 88 | 256 | 0.0 | 0.0 | 0.00 | 0.03 | 0.00 | 63 | 1016.1 |
| 20260510151022 | 87 | 228 | 4.0 | 4.0 | 0.00 | 0.03 | 0.00 | 64 | 1016.2 |
| 20260510145513 | 88 | 225 | 0.0 | 6.0 | 0.00 | 0.03 | 0.00 | 66 | 1016.1 |
| 20260510144012 | 87 | 212 | 5.0 | 8.0 | 0.00 | 0.03 | 0.00 | 66 | 1016.1 |
| 20260510142511 | 87 | 202 | 1.0 | 9.0 | 0.00 | 0.03 | 0.00 | 69 | 1016.2 |
| 20260510141011 | 85 | 210 | 1.0 | 6.0 | 0.00 | 0.03 | 0.00 | 72 | 1016.2 |
| 20260510135508 | 84 | 266 | 2.0 | 5.0 | 0.00 | 0.03 | 0.00 | 74 | 1016.0 |
| 20260510134007 | 82 | 257 | 3.0 | 5.0 | 0.00 | 0.03 | 0.00 | 77 | 1015.9 |
| 20260510132506 | 82 | 180 | 2.0 | 6.0 | 0.00 | 0.03 | 0.00 | 78 | 1015.9 |
| 20260510131006 | 80 | 190 | 2.0 | 8.0 | 0.00 | 0.03 | 0.00 | 81 | 1015.9 |
| 20260510125503 | 79 | 214 | 0.0 | 0.0 | 0.00 | 0.03 | 0.00 | 84 | 1015.7 |
| 20260510124002 | 77 | 207 | 1.0 | 6.0 | 0.00 | 0.03 | 0.00 | 86 | 1015.6 |
| 20260510122501 | 76 | 186 | 0.0 | 7.0 | 0.00 | 0.03 | 0.00 | 89 | 1015.6 |
| 20260510121001 | 75 | 222 | 0.0 | 0.0 | 0.00 | 0.03 | 0.00 | 90 | 1015.3 |
| 20260510115458 | 74 | 287 | 0.0 | 0.0 | 0.00 | 0.03 | 0.00 | 91 | 1015.1 |
| 20260510113957 | 73 | 287 | 0.0 | 0.0 | 0.00 | 0.03 | 0.00 | 91 | 1014.8 |
| 20260510112456 | 73 | 287 | 0.0 | 0.0 | 0.00 | 0.03 | 0.00 | 91 | 1014.7 |
| 20260510110956 | 72 | 287 | 0.0 | 0.0 | 0.00 | 0.03 | 0.00 | 91 | 1014.4 |
| 20260510105453 | 73 | 287 | 0.0 | 0.0 | 0.00 | 0.03 | 0.00 | 91 | 1014.2 |
| 20260510103952 | 72 | 287 | 0.0 | 0.0 | 0.00 | 0.03 | 0.00 | 91 | 1014.1 |
| 20260510102451 | 73 | 287 | 0.0 | 0.0 | 0.00 | 0.03 | 0.00 | 91 | 1014.0 |
| 20260510100951 | 73 | 287 | 0.0 | 0.0 | 0.00 | 0.03 | 0.00 | 91 | 1013.7 |
| 20260510095448 | 73 | 287 | 0.0 | 0.0 | 0.00 | 0.03 | 0.00 | 91 | 1013.5 |
| 20260510093947 | 73 | 287 | 0.0 | 0.0 | 0.00 | 0.03 | 0.00 | 90 | 1013.4 |
| 20260510092446 | 73 | 287 | 0.0 | 0.0 | 0.00 | 0.03 | 0.00 | 90 | 1013.3 |
| 20260510090946 | 74 | 287 | 0.0 | 0.0 | 0.00 | 0.03 | 0.00 | 90 | 1013.1 |
| 20260510085443 | 74 | 287 | 0.0 | 0.0 | 0.00 | 0.03 | 0.00 | 90 | 1012.9 |
| 20260510083942 | 74 | 287 | 0.0 | 0.0 | 0.00 | 0.03 | 0.00 | 90 | 1012.7 |
| 20260510082441 | 75 | 287 | 0.0 | 0.0 | 0.00 | 0.03 | 0.00 | 90 | 1012.6 |
| 20260510080941 | 74 | 287 | 0.0 | 0.0 | 0.00 | 0.03 | 0.00 | 90 | 1012.9 |
| 20260510075438 | 75 | 287 | 0.0 | 0.0 | 0.00 | 0.03 | 0.00 | 90 | 1012.7 |
| 20260510073937 | 75 | 287 | 0.0 | 0.0 | 0.00 | 0.03 | 0.00 | 89 | 1012.9 |
| 20260510072436 | 76 | 287 | 0.0 | 0.0 | 0.00 | 0.03 | 0.00 | 89 | 1012.9 |
| 20260510070936 | 75 | 287 | 0.0 | 0.0 | 0.00 | 0.03 | 0.00 | 90 | 1013.0 |
| 20260510065433 | 75 | 287 | 0.0 | 0.0 | 0.00 | 0.03 | 0.00 | 90 | 1013.3 |
| 20260510063932 | 76 | 287 | 0.0 | 0.0 | 0.00 | 0.03 | 0.00 | 90 | 1013.6 |
| 20260510062431 | 76 | 287 | 0.0 | 0.0 | 0.00 | 0.03 | 0.00 | 90 | 1013.6 |
| 20260510060931 | 76 | 287 | 0.0 | 0.0 | 0.00 | 0.03 | 0.00 | 90 | 1013.8 |
| 20260510055428 | 76 | 287 | 0.0 | 0.0 | 0.00 | 0.03 | 0.00 | 90 | 1013.9 |
| 20260510053927 | 76 | 287 | 0.0 | 0.0 | 0.00 | 0.03 | 0.00 | 90 | 1014.2 |
| 20260510052426 | 76 | 287 | 0.0 | 0.0 | 0.00 | 0.03 | 0.00 | 90 | 1014.2 |
| 20260510050926 | 76 | 287 | 0.0 | 0.0 | 0.00 | 0.03 | 0.00 | 90 | 1014.5 |
| 20260510045423 | 76 | 287 | 0.0 | 0.0 | 0.00 | 0.03 | 0.00 | 90 | 1014.5 |
| 20260510043922 | 76 | 287 | 0.0 | 0.0 | 0.00 | 0.03 | 0.00 | 90 | 1014.5 |
| 20260510042421 | 76 | 287 | 0.0 | 0.0 | 0.00 | 0.03 | 0.00 | 90 | 1014.6 |
| 20260510040921 | 77 | 287 | 0.0 | 0.0 | 0.00 | 0.03 | 0.00 | 90 | 1014.7 |
| 20260510035418 | 76 | 287 | 0.0 | 0.0 | 0.00 | 0.03 | 0.03 | 89 | 1014.8 |
| 20260510033917 | 77 | 287 | 0.0 | 0.0 | 0.00 | 0.03 | 0.03 | 89 | 1014.6 |
| 20260510032416 | 77 | 287 | 0.0 | 0.0 | 0.00 | 0.03 | 0.03 | 88 | 1014.5 |
| 20260510030916 | 77 | 287 | 0.0 | 0.0 | 0.02 | 0.03 | 0.03 | 88 | 1014.3 |
| 20260510025413 | 78 | 287 | 0.0 | 0.0 | 0.02 | 0.03 | 0.03 | 87 | 1014.3 |
| 20260510023912 | 78 | 287 | 0.0 | 0.0 | 0.02 | 0.03 | 0.03 | 87 | 1014.1 |
| 20260510022411 | 77 | 287 | 0.0 | 0.0 | 0.02 | 0.03 | 0.03 | 86 | 1014.0 |
| 20260510020911 | 78 | 287 | 0.0 | 0.0 | 0.00 | 0.01 | 0.01 | 85 | 1014.3 |
| 20260510015408 | 78 | 287 | 0.0 | 0.0 | 0.00 | 0.01 | 0.01 | 84 | 1014.1 |
| 20260510013907 | 78 | 287 | 0.0 | 0.0 | 0.00 | 0.01 | 0.01 | 83 | 1013.9 |
| 20260510012406 | 79 | 287 | 0.0 | 0.0 | 0.00 | 0.01 | 0.01 | 83 | 1013.6 |
| 20260510010906 | 79 | 287 | 0.0 | 0.0 | 0.00 | 0.01 | 0.01 | 82 | 1013.6 |
| 20260510005403 | 79 | 287 | 0.0 | 0.0 | 0.00 | 0.01 | 0.01 | 82 | 1013.3 |
| 20260510003902 | 80 | 287 | 0.0 | 0.0 | 0.01 | 0.01 | 0.01 | 80 | 1013.3 |
| 20260510002401 | 80 | 287 | 0.0 | 0.0 | 0.01 | 0.01 | 0.01 | 78 | 1013.2 |
| 20260510000901 | 81 | 287 | 0.0 | 0.0 | 0.01 | 0.01 | 0.01 | 76 | 1013.0 |
| 20260509235358 | 82 | 287 | 0.0 | 0.0 | 0.01 | 0.01 | 0.01 | 75 | 1012.9 |
| 20260509233857 | 82 | 287 | 0.0 | 0.0 | 0.00 | 0.00 | 0.00 | 70 | 1012.8 |
| 20260509232356 | 83 | 249 | 3.0 | 5.0 | 0.00 | 0.00 | 0.00 | 69 | 1012.7 |
| 20260509230856 | 83 | 269 | 0.0 | 0.0 | 0.00 | 0.00 | 0.00 | 67 | 1012.5 |
| 20260509225353 | 84 | 260 | 1.0 | 5.0 | 0.00 | 0.00 | 0.00 | 65 | 1012.3 |
| 20260509223852 | 85 | 314 | 4.0 | 6.0 | 0.00 | 0.00 | 0.00 | 64 | 1012.2 |
| 20260509222351 | 85 | 249 | 2.0 | 6.0 | 0.00 | 0.00 | 0.00 | 61 | 1012.1 |
| 20260509220851 | 87 | 285 | 0.0 | 0.0 | 0.00 | 0.00 | 0.00 | 58 | 1012.1 |
| 20260509215348 | 88 | 235 | 5.0 | 7.0 | 0.00 | 0.00 | 0.00 | 57 | 1011.9 |
| 20260509213847 | 89 | 259 | 0.0 | 0.0 | 0.00 | 0.00 | 0.00 | 55 | 1011.9 |
| 20260509212346 | 88 | 260 | 5.0 | 6.0 | 0.00 | 0.00 | 0.00 | 52 | 1011.8 |
| 20260509210846 | 90 | 276 | 5.0 | 8.0 | 0.00 | 0.00 | 0.00 | 47 | 1011.6 |
| 20260509205343 | 93 | 308 | 6.0 | 6.0 | 0.00 | 0.00 | 0.00 | 46 | 1011.5 |
| 20260509203842 | 93 | 256 | 4.0 | 8.0 | 0.00 | 0.00 | 0.00 | 43 | 1011.4 |
| 20260509202341 | 92 | 284 | 2.0 | 6.0 | 0.00 | 0.00 | 0.00 | 45 | 1011.3 |
| 20260509200841 | 94 | 277 | 6.0 | 7.0 | 0.00 | 0.00 | 0.00 | 45 | 1011.6 |
| 20260509195338 | 93 | 262 | 4.0 | 6.0 | 0.00 | 0.00 | 0.00 | 49 | 1011.7 |
| 20260509193837 | 92 | 255 | 6.0 | 11.0 | 0.00 | 0.00 | 0.00 | 50 | 1011.7 |
| 20260509192336 | 93 | 240 | 6.0 | 10.0 | 0.00 | 0.00 | 0.00 | 50 | 1011.9 |
| 20260509190836 | 92 | 271 | 7.0 | 9.0 | 0.00 | 0.00 | 0.00 | 49 | 1012.0 |
| 20260509185333 | 93 | 280 | 7.0 | 10.0 | 0.00 | 0.00 | 0.00 | 46 | 1012.2 |
| 20260509183832 | 94 | 248 | 6.0 | 7.0 | 0.00 | 0.00 | 0.00 | 45 | 1012.4 |